Time;durP1;ratioP1;P1;durP2;ratioP2;P2;SDS_P1;SDS_P2;PMS_P1;PMS_P2;Temp;Humidity;BMP_temperature;BMP_pressure;BME280_temperature;BME280_humidity;BME280_pressure;Samples;Min_cycle;Max_cycle;Signal;HPM_P1;HPM_P2
2021/09/16 00:05:06;;;;;;;5.18;1.73;;;16.90;99.90;;;;;;12510210;28;20061;-36
2021/09/16 00:11:08;;;;;;;8.38;2.03;;;16.90;99.90;;;;;;12509502;28;20132;-37
2021/09/16 00:17:09;;;;;;;5.05;1.60;;;16.80;99.90;;;;;;12513522;28;20057;-42
2021/09/16 00:23:11;;;;;;;2.97;0.90;;;16.70;99.90;;;;;;12511531;28;20053;-42
2021/09/16 00:29:14;;;;;;;3.10;0.80;;;16.50;99.90;;;;;;12511597;28;20060;-37
2021/09/16 00:35:16;;;;;;;3.60;0.70;;;16.30;99.90;;;;;;12513825;28;20052;-37
2021/09/16 00:41:17;;;;;;;7.07;0.80;;;16.30;99.90;;;;;;12520385;28;20048;-41
2021/09/16 00:47:19;;;;;;;2.90;0.63;;;16.30;99.90;;;;;;12517087;28;20970;-37
2021/09/16 00:53:22;;;;;;;2.08;1.05;;;16.10;99.90;;;;;;12520069;28;20571;-42
2021/09/16 00:59:27;;;;;;;5.53;0.77;;;16.00;99.90;;;;;;12520220;28;20132;-42
2021/09/16 01:05:29;;;;;;;4.57;1.20;;;15.90;99.90;;;;;;12520595;28;20048;-38
2021/09/16 01:11:31;;;;;;;3.88;0.77;;;15.90;99.90;;;;;;12518044;28;20090;-42
2021/09/16 01:17:33;;;;;;;10.88;1.00;;;16.00;99.90;;;;;;12519753;28;21130;-43
2021/09/16 01:23:36;;;;;;;3.35;0.80;;;15.90;99.90;;;;;;12518477;28;20148;-43
2021/09/16 01:29:38;;;;;;;6.85;0.88;;;16.00;99.90;;;;;;12518132;28;20062;-42
2021/09/16 01:35:40;;;;;;;6.22;1.10;;;15.90;99.90;;;;;;12516046;28;20097;-43
2021/09/16 01:41:41;;;;;;;5.00;1.00;;;15.90;99.90;;;;;;12515234;28;20048;-37
2021/09/16 01:47:44;;;;;;;4.78;1.25;;;15.90;99.90;;;;;;12520595;28;20064;-42
2021/09/16 01:53:46;;;;;;;5.20;0.90;;;15.80;99.90;;;;;;12518073;28;20052;-42
2021/09/16 01:59:48;;;;;;;8.00;1.80;;;15.90;99.90;;;;;;12515705;28;20048;-37
2021/09/16 02:05:50;;;;;;;4.78;1.00;;;15.80;99.90;;;;;;12512003;28;20059;-42
2021/09/16 02:11:51;;;;;;;3.58;1.00;;;15.80;99.90;;;;;;12516912;28;20677;-42
2021/09/16 02:17:53;;;;;;;6.45;0.90;;;15.90;99.90;;;;;;12512578;28;20049;-37
2021/09/16 02:23:55;;;;;;;6.40;1.25;;;15.80;99.90;;;;;;12515361;28;20061;-43
2021/09/16 02:29:57;;;;;;;5.72;1.00;;;15.80;99.90;;;;;;12517539;28;20056;-37
2021/09/16 02:36:00;;;;;;;6.60;1.33;;;15.70;99.90;;;;;;12513594;28;21270;-43
2021/09/16 02:42:02;;;;;;;6.05;1.30;;;15.50;99.90;;;;;;12510533;28;20053;-43
2021/09/16 02:48:04;;;;;;;7.57;1.40;;;15.60;99.90;;;;;;12516555;28;20140;-37
2021/09/16 02:54:06;;;;;;;4.22;1.02;;;15.70;99.90;;;;;;12518590;28;20508;-42
2021/09/16 03:00:09;;;;;;;4.07;0.90;;;15.50;99.90;;;;;;12512851;28;21348;-37
2021/09/16 03:06:11;;;;;;;7.30;1.02;;;15.30;99.90;;;;;;12516082;28;20052;-42
2021/09/16 03:12:13;;;;;;;4.80;0.90;;;15.10;99.90;;;;;;12509686;28;20048;-42
2021/09/16 03:18:14;;;;;;;4.38;0.82;;;15.10;99.90;;;;;;12515046;28;20056;-41
2021/09/16 03:24:17;;;;;;;7.75;0.70;;;15.00;99.90;;;;;;12513002;28;20147;-38
2021/09/16 03:30:18;;;;;;;4.38;0.60;;;15.20;99.90;;;;;;12515653;28;20491;-43
2021/09/16 03:36:20;;;;;;;2.65;0.70;;;15.50;99.90;;;;;;12513524;28;20110;-37
2021/09/16 03:42:23;;;;;;;4.32;0.68;;;15.10;99.90;;;;;;12512520;28;20049;-42
2021/09/16 03:48:24;;;;;;;3.95;0.70;;;15.20;99.90;;;;;;12511534;28;20064;-38
2021/09/16 03:54:26;;;;;;;3.53;0.98;;;15.00;99.90;;;;;;12512189;28;20568;-43
2021/09/16 04:00:28;;;;;;;5.63;0.80;;;14.80;99.90;;;;;;12510250;28;20045;-37
2021/09/16 04:06:31;;;;;;;2.60;0.80;;;14.70;99.90;;;;;;12511570;28;20092;-43
2021/09/16 04:12:34;;;;;;;6.97;0.90;;;14.70;99.90;;;;;;12517733;28;20044;-43
2021/09/16 04:18:35;;;;;;;4.18;0.82;;;14.80;99.90;;;;;;12522789;28;20049;-39
2021/09/16 04:24:37;;;;;;;5.22;0.85;;;14.70;99.90;;;;;;12522377;28;20102;-45
2021/09/16 04:30:39;;;;;;;6.28;0.80;;;14.80;99.90;;;;;;12520247;28;20053;-42
2021/09/16 04:36:41;;;;;;;6.60;1.10;;;14.70;99.90;;;;;;12522662;28;20078;-37
2021/09/16 04:42:43;;;;;;;5.18;0.98;;;15.00;99.90;;;;;;12524201;28;20626;-44
2021/09/16 04:48:44;;;;;;;4.78;0.93;;;15.00;99.90;;;;;;12521694;28;20101;-44
2021/09/16 04:54:46;;;;;;;5.25;0.77;;;14.50;99.90;;;;;;12523004;28;20090;-42
2021/09/16 05:00:48;;;;;;;10.57;1.80;;;14.80;99.90;;;;;;12519470;28;20053;-44
2021/09/16 05:06:50;;;;;;;3.45;0.82;;;14.90;99.90;;;;;;12521413;28;20083;-44
2021/09/16 05:12:52;;;;;;;7.50;0.88;;;14.80;99.90;;;;;;12520208;28;20076;-37
2021/09/16 05:18:54;;;;;;;3.78;1.20;;;14.70;99.90;;;;;;12520968;28;20447;-44
2021/09/16 05:24:55;;;;;;;6.80;0.93;;;14.80;99.90;;;;;;12520600;28;20057;-43
2021/09/16 05:30:57;;;;;;;3.80;1.00;;;14.70;99.90;;;;;;12516814;28;20049;-43
2021/09/16 05:36:59;;;;;;;3.83;1.10;;;14.80;99.90;;;;;;12521792;28;20103;-37
2021/09/16 05:43:01;;;;;;;6.20;1.23;;;14.70;99.90;;;;;;12519307;28;20167;-43
2021/09/16 05:49:03;;;;;;;8.90;1.63;;;14.60;99.90;;;;;;12513471;28;20078;-37
2021/09/16 05:55:06;;;;;;;8.00;1.40;;;14.50;99.90;;;;;;12515718;28;20119;-38
2021/09/16 06:01:08;;;;;;;7.93;1.80;;;14.40;99.90;;;;;;12521120;28;20049;-37
2021/09/16 06:07:10;;;;;;;6.45;2.10;;;14.40;99.90;;;;;;12519273;28;20045;-38
2021/09/16 06:13:12;;;;;;;5.70;1.77;;;14.30;99.90;;;;;;12517428;28;20041;-42
2021/09/16 06:19:13;;;;;;;7.47;2.00;;;14.40;99.90;;;;;;12522576;28;20053;-38
2021/09/16 06:25:16;;;;;;;10.80;2.33;;;14.50;99.90;;;;;;12517180;28;20114;-37
2021/09/16 06:31:18;;;;;;;8.25;2.40;;;14.20;99.90;;;;;;12520748;28;20556;-44
2021/09/16 06:37:20;;;;;;;5.72;2.28;;;14.30;99.90;;;;;;12516345;28;20076;-43
2021/09/16 06:43:22;;;;;;;8.60;2.30;;;14.10;99.90;;;;;;12515878;28;20053;-37
2021/09/16 06:49:24;;;;;;;5.93;2.60;;;14.30;99.90;;;;;;12520105;28;20049;-43
2021/09/16 06:55:26;;;;;;;5.80;1.83;;;14.20;99.90;;;;;;12516149;28;20041;-43
2021/09/16 07:01:28;;;;;;;4.97;2.28;;;14.30;99.90;;;;;;12516942;28;20053;-37
2021/09/16 07:07:30;;;;;;;8.50;2.13;;;14.30;99.90;;;;;;12517909;28;20057;-37
2021/09/16 07:13:32;;;;;;;7.45;2.60;;;14.40;99.90;;;;;;12519127;28;20040;-38
2021/09/16 07:19:34;;;;;;;6.68;2.83;;;14.30;99.90;;;;;;12516100;28;20536;-37
2021/09/16 07:25:36;;;;;;;8.02;3.20;;;14.60;99.90;;;;;;12515627;28;20087;-44
2021/09/16 07:31:38;;;;;;;5.18;2.63;;;14.10;99.90;;;;;;12516012;28;20053;-43
2021/09/16 07:37:40;;;;;;;5.35;2.80;;;14.10;99.90;;;;;;12514452;28;20541;-38
2021/09/16 07:43:42;;;;;;;5.05;3.63;;;14.00;99.90;;;;;;12514843;28;20110;-43
2021/09/16 07:49:45;;;;;;;6.65;3.35;;;14.00;99.90;;;;;;12531282;28;20078;-38
2021/09/16 07:55:48;;;;;;;6.13;3.80;;;14.40;99.90;;;;;;12531057;28;20044;-43
2021/09/16 08:01:54;;;;;;;6.97;3.95;;;14.50;99.90;;;;;;12538017;28;20068;-43
2021/09/16 08:07:56;;;;;;;6.47;4.03;;;14.40;99.90;;;;;;12531734;28;20061;-42
2021/09/16 08:13:58;;;;;;;7.43;4.30;;;14.30;99.90;;;;;;12534493;28;20061;-37
2021/09/16 08:20:00;;;;;;;7.88;3.97;;;14.40;99.90;;;;;;12533241;28;20199;-38
2021/09/16 08:26:02;;;;;;;6.60;4.35;;;14.40;99.90;;;;;;12532292;28;20049;-37
2021/09/16 08:32:04;;;;;;;6.85;4.07;;;14.80;99.90;;;;;;12533799;28;20559;-38
2021/09/16 08:38:07;;;;;;;8.63;4.15;;;15.20;99.90;;;;;;12530372;28;20049;-38
2021/09/16 08:44:10;;;;;;;6.50;4.07;;;15.20;99.90;;;;;;12529583;28;20147;-44
2021/09/16 08:50:14;;;;;;;5.90;4.17;;;15.70;99.90;;;;;;12530814;28;20095;-37
2021/09/16 08:56:17;;;;;;;7.13;3.72;;;15.90;99.90;;;;;;12525699;28;20068;-43
2021/09/16 09:02:20;;;;;;;6.15;4.13;;;15.90;99.90;;;;;;12523170;28;20080;-38
2021/09/16 09:08:25;;;;;;;11.05;4.43;;;15.90;99.90;;;;;;12522162;28;20060;-44
2021/09/16 09:14:32;;;;;;;11.95;4.88;;;15.80;99.90;;;;;;12518278;28;20041;-38
2021/09/16 09:20:53;;;;;;;9.07;5.03;;;15.90;99.90;;;;;;12521784;28;20086;-38
2021/09/16 09:26:56;;;;;;;12.10;5.50;;;16.10;99.90;;;;;;12522370;28;20061;-44
2021/09/16 09:33:01;;;;;;;9.70;4.95;;;16.30;99.90;;;;;;12518810;28;20053;-44
2021/09/16 09:39:03;;;;;;;9.65;5.45;;;16.40;99.90;;;;;;12521876;28;20548;-37
2021/09/16 09:45:09;;;;;;;8.85;4.82;;;16.50;99.90;;;;;;12524615;28;20068;-42
2021/09/16 09:51:14;;;;;;;7.82;4.68;;;16.70;99.90;;;;;;12523102;28;20087;-38
2021/09/16 09:57:18;;;;;;;7.88;4.32;;;16.90;99.90;;;;;;12521035;28;20131;-43
2021/09/16 10:03:27;;;;;;;11.13;4.68;;;17.00;99.90;;;;;;12516483;28;20613;-44
2021/09/16 10:09:29;;;;;;;6.30;3.67;;;17.10;99.90;;;;;;12519675;28;20063;-39
2021/09/16 10:15:31;;;;;;;11.05;4.70;;;17.20;99.90;;;;;;12521369;28;20045;-38
2021/09/16 10:21:34;;;;;;;8.10;4.43;;;17.30;99.90;;;;;;12518679;28;20056;-38
2021/09/16 10:27:42;;;;;;;6.93;4.10;;;17.30;99.90;;;;;;12516401;28;20045;-43
2021/09/16 10:33:44;;;;;;;9.68;4.15;;;17.30;99.90;;;;;;12519717;28;20041;-38
2021/09/16 10:39:47;;;;;;;12.68;3.58;;;17.10;99.90;;;;;;12517708;28;20056;-38
2021/09/16 10:45:50;;;;;;;7.95;3.40;;;16.90;99.90;;;;;;12519130;28;20053;-44
2021/09/16 10:52:11;;;;;;;10.07;3.08;;;16.80;99.90;;;;;;12520907;28;20041;-44
2021/09/16 10:58:26;;;;;;;7.03;3.10;;;16.70;99.90;;;;;;12517669;28;20060;-44
2021/09/16 11:04:54;;;;;;;7.72;3.45;;;16.60;99.90;;;;;;12513292;28;20059;-38
2021/09/16 11:10:57;;;;;;;8.93;3.83;;;16.40;99.90;;;;;;12514496;28;20063;-37
2021/09/16 11:17:01;;;;;;;6.43;3.60;;;16.30;99.90;;;;;;12511590;28;20479;-43
2021/09/16 11:23:04;;;;;;;7.05;3.60;;;16.10;99.90;;;;;;12513685;28;20049;-37
2021/09/16 11:29:09;;;;;;;8.48;3.90;;;16.10;99.90;;;;;;12515928;28;21144;-46
2021/09/16 11:35:16;;;;;;;9.10;3.65;;;16.10;99.90;;;;;;12513840;28;20557;-38
2021/09/16 11:41:26;;;;;;;10.07;3.60;;;16.60;99.90;;;;;;12515245;28;20048;-43
2021/09/16 11:47:49;;;;;;;5.80;3.33;;;16.50;99.90;;;;;;12516630;28;20064;-44
2021/09/16 11:53:51;;;;;;;9.82;4.43;;;16.40;99.90;;;;;;12519484;28;20041;-42
2021/09/16 11:59:53;;;;;;;8.35;3.28;;;16.30;99.90;;;;;;12514951;28;20049;-44
2021/09/16 12:06:00;;;;;;;8.00;3.10;;;16.10;99.90;;;;;;12514233;28;20048;-42
2021/09/16 12:12:03;;;;;;;8.25;3.90;;;16.10;99.90;;;;;;12510542;28;20053;-37
2021/09/16 12:18:07;;;;;;;9.93;3.75;;;16.10;99.90;;;;;;12513635;28;20064;-37
2021/09/16 12:24:15;;;;;;;7.90;3.90;;;16.10;99.90;;;;;;12514940;28;20087;-43
2021/09/16 12:30:19;;;;;;;7.72;3.70;;;16.20;99.90;;;;;;12512184;28;20295;-37
2021/09/16 12:36:22;;;;;;;6.43;3.30;;;16.60;99.90;;;;;;12523758;28;20041;-38
2021/09/16 12:42:26;;;;;;;5.33;3.17;;;16.70;99.90;;;;;;12521150;28;20080;-37
2021/09/16 12:48:28;;;;;;;5.93;2.50;;;16.90;99.90;;;;;;12523349;28;20551;-37
2021/09/16 12:54:32;;;;;;;5.90;1.80;;;17.20;99.90;;;;;;12521203;28;20547;-39
2021/09/16 13:00:34;;;;;;;4.53;2.10;;;17.40;99.90;;;;;;12523839;28;20048;-37
2021/09/16 13:06:36;;;;;;;5.22;2.20;;;17.70;99.90;;;;;;12524198;28;20052;-40
2021/09/16 13:12:39;;;;;;;3.83;1.90;;;17.80;99.90;;;;;;12521951;28;20568;-43
2021/09/16 13:18:43;;;;;;;3.53;1.55;;;18.10;99.90;;;;;;12521748;28;20052;-42
2021/09/16 13:24:45;;;;;;;3.97;1.40;;;18.40;99.90;;;;;;12523234;28;20109;-38
2021/09/16 13:30:46;;;;;;;3.83;1.27;;;18.30;99.90;;;;;;12519738;28;20056;-37
2021/09/16 13:36:48;;;;;;;4.32;1.40;;;17.80;99.90;;;;;;12517572;28;20057;-37
2021/09/16 13:42:50;;;;;;;2.97;1.25;;;17.50;99.90;;;;;;12516848;28;21054;-43
2021/09/16 13:48:52;;;;;;;3.70;1.20;;;17.40;99.90;;;;;;12516835;28;20064;-44
2021/09/16 13:54:54;;;;;;;4.43;1.58;;;17.20;99.90;;;;;;12524916;28;20145;-43
2021/09/16 14:00:56;;;;;;;4.47;1.52;;;17.20;99.90;;;;;;12520217;28;20049;-43
2021/09/16 14:06:58;;;;;;;3.60;1.40;;;17.00;99.90;;;;;;12521059;28;20060;-38
2021/09/16 14:13:00;;;;;;;5.75;1.40;;;17.00;99.90;;;;;;12516717;28;20049;-44
2021/09/16 14:19:02;;;;;;;3.17;1.30;;;17.00;99.90;;;;;;12516488;28;20071;-38
2021/09/16 14:25:05;;;;;;;4.45;1.20;;;17.20;99.90;;;;;;12518547;28;20105;-38
2021/09/16 14:31:07;;;;;;;4.73;1.27;;;17.40;99.90;;;;;;12519190;28;20060;-37
2021/09/16 14:37:17;;;;;;;5.10;0.98;;;17.50;99.90;;;;;;12515862;28;20049;-38
2021/09/16 14:43:19;;;;;;;3.55;1.00;;;17.50;99.90;;;;;;12517727;28;20045;-43
2021/09/16 14:49:21;;;;;;;3.17;0.98;;;17.40;99.90;;;;;;12515872;28;20155;-43
2021/09/16 14:55:23;;;;;;;4.78;1.45;;;17.30;99.90;;;;;;12516846;28;20061;-44
2021/09/16 15:01:25;;;;;;;3.88;1.00;;;17.10;99.90;;;;;;12515583;28;20098;-37
2021/09/16 15:07:27;;;;;;;5.43;0.90;;;16.90;99.90;;;;;;12518186;28;20099;-42
2021/09/16 15:13:30;;;;;;;4.03;1.00;;;16.90;99.90;;;;;;12515597;28;20118;-42
2021/09/16 15:19:32;;;;;;;5.30;1.02;;;16.90;99.90;;;;;;12516640;28;20041;-37
2021/09/16 15:25:33;;;;;;;4.10;1.25;;;17.00;99.90;;;;;;12513283;28;20062;-37
2021/09/16 15:31:36;;;;;;;5.00;1.10;;;17.10;99.90;;;;;;12513822;28;20058;-45
2021/09/16 15:37:57;;;;;;;3.65;1.10;;;17.10;99.90;;;;;;12511052;28;20156;-43
2021/09/16 15:43:59;;;;;;;3.40;1.08;;;17.30;99.90;;;;;;12514776;28;20072;-42
2021/09/16 15:50:02;;;;;;;4.10;0.90;;;17.20;99.90;;;;;;12514158;28;20077;-43
2021/09/16 15:56:04;;;;;;;2.72;0.98;;;17.30;99.90;;;;;;12511645;28;20090;-43
2021/09/16 16:02:06;;;;;;;7.57;1.40;;;17.30;99.90;;;;;;12510280;28;20531;-43
2021/09/16 16:08:09;;;;;;;6.80;1.30;;;17.30;99.90;;;;;;12520055;28;20059;-38
2021/09/16 16:14:11;;;;;;;3.80;1.00;;;17.30;99.90;;;;;;12523169;28;20128;-42
2021/09/16 16:20:13;;;;;;;2.50;1.15;;;17.30;99.90;;;;;;12523258;28;20139;-39
2021/09/16 16:26:15;;;;;;;3.03;0.90;;;17.30;99.90;;;;;;12526784;28;20557;-43
2021/09/16 16:32:17;;;;;;;2.95;0.93;;;17.30;99.90;;;;;;12527306;28;20414;-37
2021/09/16 16:38:21;;;;;;;5.43;1.58;;;17.30;99.90;;;;;;12524674;28;20053;-38
2021/09/16 16:44:23;;;;;;;3.83;0.83;;;17.20;99.90;;;;;;12523434;28;20099;-44
2021/09/16 16:50:25;;;;;;;6.35;1.13;;;17.30;99.90;;;;;;12521435;28;20755;-38
2021/09/16 16:56:27;;;;;;;5.53;1.40;;;17.30;99.90;;;;;;12514646;28;20060;-42
2021/09/16 17:02:29;;;;;;;5.90;1.30;;;17.30;99.90;;;;;;12518555;28;20144;-37
2021/09/16 17:08:32;;;;;;;4.05;1.15;;;17.30;99.90;;;;;;12524144;28;20102;-37
2021/09/16 17:14:35;;;;;;;5.00;1.15;;;17.30;99.90;;;;;;12518037;28;20744;-43
2021/09/16 17:20:37;;;;;;;3.53;1.20;;;17.30;99.90;;;;;;12519863;28;20048;-42
2021/09/16 17:26:39;;;;;;;2.08;1.00;;;17.10;99.90;;;;;;12520659;28;20057;-37
2021/09/16 17:32:41;;;;;;;4.00;1.10;;;17.10;99.90;;;;;;12520801;28;20128;-37
2021/09/16 17:38:43;;;;;;;3.92;0.98;;;17.10;99.90;;;;;;12519484;28;20098;-38
2021/09/16 17:44:45;;;;;;;5.63;1.10;;;17.10;99.90;;;;;;12521698;28;20114;-38
2021/09/16 17:50:47;;;;;;;3.05;0.88;;;17.00;99.90;;;;;;12520723;28;20048;-37
2021/09/16 17:56:49;;;;;;;3.33;1.10;;;17.00;99.90;;;;;;12525949;28;20077;-38
2021/09/16 18:02:53;;;;;;;2.78;0.95;;;17.00;99.90;;;;;;12520429;28;20102;-37
2021/09/16 18:08:56;;;;;;;5.88;1.30;;;17.00;99.90;;;;;;12520249;28;20880;-44
2021/09/16 18:14:59;;;;;;;2.93;1.23;;;16.90;99.90;;;;;;12513282;28;20493;-44
2021/09/16 18:21:01;;;;;;;3.42;1.20;;;17.00;99.90;;;;;;12517147;28;20164;-43
2021/09/16 18:27:03;;;;;;;5.60;1.25;;;17.00;99.90;;;;;;12519204;28;20049;-42
2021/09/16 18:33:05;;;;;;;6.15;1.83;;;16.80;99.90;;;;;;12519243;28;20049;-38
2021/09/16 18:39:07;;;;;;;5.03;1.30;;;16.80;99.90;;;;;;12517830;28;20049;-37
2021/09/16 18:45:14;;;;;;;6.75;1.52;;;16.70;99.90;;;;;;12515992;28;20407;-43
2021/09/16 18:51:16;;;;;;;3.40;1.60;;;16.60;99.90;;;;;;12517027;28;20053;-44
2021/09/16 18:57:17;;;;;;;4.93;1.63;;;16.50;99.90;;;;;;12514997;28;20384;-44
2021/09/16 19:03:19;;;;;;;5.13;1.80;;;16.50;99.90;;;;;;12516218;28;20136;-43
2021/09/16 19:09:21;;;;;;;3.83;1.60;;;16.40;99.90;;;;;;12520834;28;20084;-37
2021/09/16 19:15:23;;;;;;;4.95;1.63;;;16.30;99.90;;;;;;12512142;28;20053;-38
2021/09/16 19:21:25;;;;;;;2.92;1.70;;;16.30;99.90;;;;;;12516260;28;20067;-37
2021/09/16 19:27:28;;;;;;;6.95;1.80;;;16.20;99.90;;;;;;12513518;28;20102;-44
2021/09/16 19:33:31;;;;;;;2.75;1.60;;;16.30;99.90;;;;;;12512918;28;20056;-37
2021/09/16 19:39:33;;;;;;;3.10;1.55;;;16.40;99.90;;;;;;12516360;28;20048;-44
2021/09/16 19:45:35;;;;;;;4.47;1.90;;;16.30;99.90;;;;;;12512308;28;20098;-38
2021/09/16 19:51:39;;;;;;;3.75;1.85;;;16.30;99.90;;;;;;12513933;28;20053;-38
2021/09/16 19:57:43;;;;;;;6.03;1.63;;;16.30;99.90;;;;;;12510119;28;20429;-38
2021/09/16 20:03:47;;;;;;;6.13;2.08;;;16.30;99.90;;;;;;12513038;28;20053;-38
2021/09/16 20:09:49;;;;;;;5.53;2.60;;;16.30;99.90;;;;;;12514864;28;20068;-44
2021/09/16 20:15:50;;;;;;;7.95;1.90;;;16.30;99.90;;;;;;12511777;28;20090;-45
2021/09/16 20:21:53;;;;;;;4.72;2.10;;;16.30;99.90;;;;;;12511976;28;20079;-44
2021/09/16 20:27:54;;;;;;;3.75;2.00;;;16.20;99.90;;;;;;12511580;28;20117;-38
2021/09/16 20:33:56;;;;;;;5.07;1.92;;;16.20;99.90;;;;;;12511755;28;20053;-43
2021/09/16 20:39:58;;;;;;;5.90;2.20;;;16.20;99.90;;;;;;12514008;28;20057;-38
2021/09/16 20:46:00;;;;;;;6.90;2.00;;;16.30;99.90;;;;;;12514835;28;20772;-38
2021/09/16 20:52:02;;;;;;;4.53;2.03;;;16.20;99.90;;;;;;12513225;28;20063;-38
2021/09/16 20:58:04;;;;;;;5.28;2.25;;;15.90;99.90;;;;;;12521846;28;20532;-39
2021/09/16 21:04:06;;;;;;;5.43;2.50;;;16.00;99.90;;;;;;12521444;28;20524;-45
2021/09/16 21:10:09;;;;;;;5.03;2.47;;;16.20;99.90;;;;;;12517998;28;20452;-43
2021/09/16 21:16:13;;;;;;;5.32;2.15;;;16.10;99.90;;;;;;12522313;28;20143;-47
2021/09/16 21:22:16;;;;;;;3.92;2.45;;;16.10;99.90;;;;;;12516998;28;20059;-38
2021/09/16 21:28:18;;;;;;;7.32;2.90;;;16.10;99.90;;;;;;12523284;28;20056;-37
2021/09/16 21:34:20;;;;;;;6.43;2.30;;;16.10;99.90;;;;;;12517550;28;20159;-38
2021/09/16 21:40:23;;;;;;;5.55;2.70;;;16.00;99.90;;;;;;12516598;28;20068;-45
2021/09/16 21:46:25;;;;;;;4.97;2.67;;;16.00;99.90;;;;;;12517654;28;20041;-38
2021/09/16 21:52:27;;;;;;;4.10;2.50;;;15.80;99.90;;;;;;12515865;28;20063;-44
2021/09/16 21:58:29;;;;;;;3.83;2.47;;;15.70;99.90;;;;;;12517594;28;20735;-37
2021/09/16 22:04:31;;;;;;;5.80;3.35;;;15.70;99.90;;;;;;12518086;28;20057;-37
2021/09/16 22:10:33;;;;;;;10.57;2.97;;;15.60;99.90;;;;;;12520646;28;20053;-46
2021/09/16 22:16:35;;;;;;;4.95;3.00;;;15.30;99.90;;;;;;12519497;28;20070;-44
2021/09/16 22:22:37;;;;;;;5.03;3.00;;;15.20;99.90;;;;;;12519077;28;20080;-44
2021/09/16 22:28:39;;;;;;;10.48;3.92;;;15.20;99.90;;;;;;12514072;28;20053;-42
2021/09/16 22:34:41;;;;;;;7.93;3.95;;;15.20;99.90;;;;;;12518643;28;20045;-39
2021/09/16 22:40:43;;;;;;;6.13;3.60;;;14.90;99.90;;;;;;12515007;28;20146;-43
2021/09/16 22:46:45;;;;;;;7.45;4.40;;;15.00;99.90;;;;;;12517420;28;20751;-45
2021/09/16 22:52:47;;;;;;;7.63;4.30;;;14.80;99.90;;;;;;12514136;28;20086;-44
2021/09/16 22:58:49;;;;;;;9.35;3.92;;;14.90;99.90;;;;;;12515904;28;20102;-44
2021/09/16 23:04:51;;;;;;;10.43;4.47;;;14.70;99.90;;;;;;12514533;28;20151;-44
2021/09/16 23:10:53;;;;;;;8.32;4.60;;;14.90;99.90;;;;;;12513422;28;20045;-42
2021/09/16 23:16:55;;;;;;;6.95;4.90;;;14.90;99.90;;;;;;12513233;28;20101;-44
2021/09/16 23:22:57;;;;;;;11.05;5.13;;;14.80;99.90;;;;;;12512246;28;20102;-38
2021/09/16 23:28:58;;;;;;;10.25;5.68;;;14.80;99.90;;;;;;12516829;28;20053;-39
2021/09/16 23:35:00;;;;;;;10.07;6.47;;;14.70;99.90;;;;;;12513152;28;20056;-37
2021/09/16 23:41:02;;;;;;;9.15;6.88;;;14.80;99.90;;;;;;12513460;28;20079;-44
2021/09/16 23:47:04;;;;;;;11.65;6.63;;;14.70;99.90;;;;;;12513674;28;20098;-37
2021/09/16 23:53:06;;;;;;;9.25;7.05;;;14.80;99.90;;;;;;12512815;28;20841;-43
2021/09/16 23:59:08;;;;;;;8.85;7.40;;;14.80;99.90;;;;;;12514920;28;20049;-38
